Ozgur Aksoy — 9HA2587 — position and weather

sailwx.info

Track history (hours):
 
Tides and Currents Weather Stations Pressure Air Temp Water Temp Dewpoint Dewpoint Depression Visibility Wind Speed Wind Dir Waves Ship Positions

Ozgur Aksoy

Last reported at 2017-Nov-29 18:36 UTC. Time now 2018-Feb-23 01:00 UTC.
Position N 01°18' E 103°22'.
Warning: this ship's position is months out of date.

Length 196 m; draft 13.3 m.

Type: Cargo ship. MMSI: 248950000.

Date/timePositionNaut miles runAvg speedWind from/ knotsBaromVisibWave heightAir tempDewpointWater temp
2017-Nov-29 18:36N 01°18' E 103°22'110.6
2017-Nov-29 18:30N 01°17' E 103°22'6 9.8
2017-Nov-29 17:55N 01°14' E 103°27'410.2
2017-Nov-29 17:30N 01°13' E 103°31'510.2
2017-Nov-29 17:00N 01°11' E 103°36'5 9.7
2017-Nov-29 16:30N 01°10' E 103°41'4 8.9
2017-Nov-29 16:00N 01°09' E 103°45'5 9.6
2017-Nov-29 15:30N 01°11' E 103°49'5 9.6
2017-Nov-29 15:00N 01°13' E 103°54'5 9.2
2017-Nov-29 14:30N 01°15' E 103°58'2 3.5
2017-Nov-29 13:58N 01°17' E 103°58'0 0.0
2017-Nov-29 13:28N 01°17' E 103°58'0 0.0
2017-Nov-29 12:16N 01°17' E 103°58'0 0.2
2017-Nov-29 11:58N 01°17' E 103°59'0 0.0
2017-Nov-29 11:28N 01°17' E 103°59'0 0.1
2017-Nov-29 10:55N 01°17' E 103°58'0 0.3
2017-Nov-29 10:25N 01°17' E 103°58'0 0.2
2017-Nov-29 09:58N 01°17' E 103°58'0 0.1
2017-Nov-29 09:28N 01°17' E 103°58'0 0.1
2017-Nov-29 08:52N 01°17' E 103°58'0 0.0
2017-Nov-29 08:22N 01°17' E 103°58'0 0.4
2017-Nov-29 07:58N 01°17' E 103°58'0 0.2
2017-Nov-29 07:28N 01°17' E 103°58'0 0.0
2017-Nov-29 06:58N 01°17' E 103°58'0 0.0
2017-Nov-29 06:28N 01°17' E 103°58'0 0.1
2017-Nov-29 05:58N 01°17' E 103°58'0 0.0
2017-Nov-29 05:04N 01°17' E 103°58'0 0.1
2017-Nov-29 03:19N 01°17' E 103°58'0 0.2
2017-Nov-29 03:00N 01°17' E 103°58'  
Track history (hours):
 
Tides and Currents Weather Stations Pressure Air Temp Water Temp Dewpoint Dewpoint Depression Visibility Wind Speed Wind Dir Waves Ship Positions

Ozgur Aksoy

Last reported at 2017-Nov-29 18:36 UTC. Time now 2018-Feb-23 01:00 UTC.
Position N 01°18' E 103°22'.
Warning: this ship's position is months out of date.

Length 196 m; draft 13.3 m.

Type: Cargo ship. MMSI: 248950000.

Date/timePositionNaut miles runAvg speedWind from/ knotsBaromVisibWave heightAir tempDewpointWater temp
2017-Nov-29 18:36N 01°18' E 103°22'110.6
2017-Nov-29 18:30N 01°17' E 103°22'6 9.8
2017-Nov-29 17:55N 01°14' E 103°27'410.2
2017-Nov-29 17:30N 01°13' E 103°31'510.2
2017-Nov-29 17:00N 01°11' E 103°36'5 9.7
2017-Nov-29 16:30N 01°10' E 103°41'4 8.9
2017-Nov-29 16:00N 01°09' E 103°45'5 9.6
2017-Nov-29 15:30N 01°11' E 103°49'5 9.6
2017-Nov-29 15:00N 01°13' E 103°54'5 9.2
2017-Nov-29 14:30N 01°15' E 103°58'2 3.5
2017-Nov-29 13:58N 01°17' E 103°58'0 0.0
2017-Nov-29 13:28N 01°17' E 103°58'0 0.0
2017-Nov-29 12:16N 01°17' E 103°58'0 0.2
2017-Nov-29 11:58N 01°17' E 103°59'0 0.0
2017-Nov-29 11:28N 01°17' E 103°59'0 0.1
2017-Nov-29 10:55N 01°17' E 103°58'0 0.3
2017-Nov-29 10:25N 01°17' E 103°58'0 0.2
2017-Nov-29 09:58N 01°17' E 103°58'0 0.1
2017-Nov-29 09:28N 01°17' E 103°58'0 0.1
2017-Nov-29 08:52N 01°17' E 103°58'0 0.0
2017-Nov-29 08:22N 01°17' E 103°58'0 0.4
2017-Nov-29 07:58N 01°17' E 103°58'0 0.2
2017-Nov-29 07:28N 01°17' E 103°58'0 0.0
2017-Nov-29 06:58N 01°17' E 103°58'0 0.0
2017-Nov-29 06:28N 01°17' E 103°58'0 0.1
2017-Nov-29 05:58N 01°17' E 103°58'0 0.0
2017-Nov-29 05:04N 01°17' E 103°58'0 0.1
2017-Nov-29 03:19N 01°17' E 103°58'0 0.2
2017-Nov-29 03:00N 01°17' E 103°58'  

Dump ship's entire track history